Terminal Aerodrome Forecast
Issued by NWS

Home | Current Version | Previous Version | Text Only | Print | Product List | Glossary On
Versions: 1 2 3 4 5 6 7 8 9 10 11 12 13 14 15 16 17 18 19 20 21 22 23 24 25 26 27 28 29 30
000
FTUS44 KFWD 181500 AAA
TAFGKY
TAF AMD
KGKY 181511Z 1815/1912 08003KT 2SM -DZ BR OVC004
     FM181700 09004KT 3SM BR OVC006
     FM182000 05005KT P6SM SCT008 OVC012
     FM190100 04005KT 5SM BR OVC007
     FM190300 03008KT 3SM BR OVC004=

USA.gov is the U.S. government's official web portal to all federal, state and local government web resources and services.